createdAt,value
2018-12-12T00:02:32.609Z,101954.78
2018-12-12T00:07:28.400Z,101953.81
2018-12-12T00:12:23.210Z,101950.22
2018-12-12T00:17:18.175Z,101946.18
2018-12-12T00:22:13.040Z,101955.70
2018-12-12T00:27:07.924Z,101953.47
2018-12-12T00:32:02.702Z,101957.34
2018-12-12T00:36:57.488Z,101950.75
2018-12-12T00:41:52.300Z,101946.77
2018-12-12T00:46:47.622Z,101943.20
2018-12-12T00:51:42.831Z,101933.12
2018-12-12T00:56:38.211Z,101923.91
2018-12-12T01:01:33.004Z,101926.48
2018-12-12T01:06:29.194Z,101934.77
2018-12-12T01:11:30.525Z,101936.08
2018-12-12T01:16:25.408Z,101940.88
2018-12-12T01:21:20.863Z,101953.13
2018-12-12T01:26:15.647Z,101957.55
2018-12-12T01:31:10.417Z,101960.21
2018-12-12T01:36:05.189Z,101961.10
2018-12-12T01:41:00.010Z,101954.98
2018-12-12T01:45:54.803Z,101958.89
2018-12-12T01:50:49.763Z,101961.50
2018-12-12T01:55:44.594Z,101963.62
2018-12-12T02:00:39.406Z,101972.34
2018-12-12T02:05:34.250Z,101969.70
2018-12-12T02:10:29.425Z,101978.40
2018-12-12T02:15:24.234Z,101980.98
2018-12-12T02:20:19.026Z,101983.17
2018-12-12T02:25:13.833Z,101985.30
2018-12-12T02:30:09.122Z,101984.84
2018-12-12T02:35:04.446Z,101977.86
2018-12-12T02:39:59.253Z,101973.92
2018-12-12T02:44:54.101Z,101967.78
2018-12-12T02:49:48.915Z,101976.08
2018-12-12T02:54:43.658Z,101977.36
2018-12-12T02:59:38.597Z,101969.05
2018-12-12T03:04:33.399Z,101975.60
2018-12-12T03:09:28.171Z,101983.03
2018-12-12T03:14:22.980Z,101989.56
2018-12-12T03:19:17.772Z,101985.20
2018-12-12T03:24:12.589Z,101989.95
2018-12-12T03:29:07.383Z,101995.22
2018-12-12T03:34:02.236Z,101986.05
2018-12-12T03:38:57.097Z,101983.45
2018-12-12T03:43:51.908Z,101983.89
2018-12-12T03:48:46.734Z,101979.10
2018-12-12T03:53:41.591Z,101983.05
2018-12-12T03:58:36.384Z,101978.24
2018-12-12T04:03:31.158Z,101972.56
2018-12-12T04:08:26.316Z,101977.34
2018-12-12T04:13:21.181Z,101990.48
2018-12-12T04:18:16.014Z,101993.95
2018-12-12T04:23:10.819Z,101980.45
2018-12-12T04:28:05.637Z,101986.16
2018-12-12T04:33:00.454Z,101983.96
2018-12-12T04:37:55.227Z,101978.27
2018-12-12T04:42:50.048Z,101975.23
2018-12-12T04:47:44.833Z,101977.36
2018-12-12T04:52:39.672Z,101973.41
2018-12-12T04:57:34.491Z,101974.66
2018-12-12T05:02:29.671Z,101970.69
2018-12-12T05:07:24.514Z,101975.45
2018-12-12T05:12:19.598Z,101981.98
2018-12-12T05:17:14.494Z,101988.96
2018-12-12T05:22:09.305Z,101993.73
2018-12-12T05:27:04.127Z,101990.25
2018-12-12T05:31:59.011Z,101985.94
2018-12-12T05:36:57.782Z,101990.79
2018-12-12T05:41:52.658Z,101996.45
2018-12-12T05:46:47.514Z,101991.67
2018-12-12T05:51:42.360Z,101987.25
2018-12-12T05:56:37.208Z,101989.02
2018-12-12T06:01:32.134Z,101996.02
2018-12-12T06:06:27.157Z,101991.67
2018-12-12T06:11:21.957Z,101991.23
2018-12-12T06:16:16.724Z,101994.29
2018-12-12T06:21:11.742Z,102005.22
2018-12-12T06:26:06.546Z,102017.02
2018-12-12T06:31:01.449Z,102007.45
2018-12-12T06:35:56.260Z,102014.46
2018-12-12T06:40:51.235Z,102013.60
2018-12-12T06:45:46.036Z,102014.97
2018-12-12T06:50:41.326Z,102025.48
2018-12-12T06:55:36.130Z,102023.77
2018-12-12T07:00:30.941Z,102029.89
2018-12-12T07:10:47.073Z,102035.62
2018-12-12T07:21:03.351Z,102038.64
2018-12-12T07:27:22.649Z,102036.91
2018-12-12T07:32:17.459Z,102034.29
2018-12-12T07:37:12.338Z,102035.17
2018-12-12T07:42:07.166Z,102034.82
2018-12-12T07:47:02.367Z,102044.94
2018-12-12T07:51:57.154Z,102048.97
2018-12-12T08:02:13.761Z,102060.09
2018-12-12T08:07:08.430Z,102064.58
2018-12-12T08:12:03.151Z,102069.05
2018-12-12T08:16:57.812Z,102071.30
2018-12-12T08:21:52.500Z,102077.89
2018-12-12T08:26:47.194Z,102082.30
2018-12-12T08:31:41.867Z,102082.75
2018-12-12T08:36:36.547Z,102080.97
2018-12-12T08:41:33.011Z,102076.33
2018-12-12T08:46:27.941Z,102081.05
2018-12-12T08:51:22.722Z,102075.84
2018-12-12T08:56:17.401Z,102081.20
2018-12-12T09:01:12.085Z,102081.84
2018-12-12T09:06:06.735Z,102080.53
2018-12-12T09:11:01.456Z,102084.78
2018-12-12T09:15:56.154Z,102079.90
2018-12-12T09:20:51.011Z,102088.06
2018-12-12T09:25:45.701Z,102089.12
2018-12-12T09:30:40.364Z,102097.71
2018-12-12T09:35:35.106Z,102098.70
2018-12-12T09:40:30.112Z,102102.72
2018-12-12T09:45:24.793Z,102102.71
2018-12-12T09:50:20.047Z,102106.12
2018-12-12T09:55:14.758Z,102109.64
2018-12-12T10:00:09.740Z,102105.94
2018-12-12T10:05:04.839Z,102100.01
2018-12-12T10:09:59.640Z,102094.75
2018-12-12T10:14:54.284Z,102099.30
2018-12-12T10:19:49.023Z,102091.71
2018-12-12T10:24:43.689Z,102092.27
2018-12-12T10:29:38.459Z,102089.29
2018-12-12T10:34:33.342Z,102081.28
2018-12-12T10:39:28.038Z,102080.69
2018-12-12T10:44:22.706Z,102074.17
2018-12-12T10:49:17.558Z,102065.09
2018-12-12T10:54:12.233Z,102069.80
2018-12-12T10:59:06.894Z,102061.44
2018-12-12T11:04:01.665Z,102053.86
2018-12-12T11:08:56.373Z,102052.27
2018-12-12T11:13:51.153Z,102048.48
2018-12-12T11:18:45.809Z,102048.62
2018-12-12T11:23:40.515Z,102037.92
2018-12-12T11:28:35.320Z,102039.80
2018-12-12T11:33:29.987Z,102029.34
2018-12-12T11:38:24.673Z,102024.11
2018-12-12T11:43:20.071Z,102030.64
2018-12-12T11:48:14.756Z,102022.77
2018-12-12T11:53:09.511Z,102011.97
2018-12-12T11:58:04.179Z,102010.10
2018-12-12T12:02:58.920Z,102008.31
2018-12-12T12:07:53.538Z,101998.38
2018-12-12T12:12:48.220Z,101998.00
2018-12-12T12:17:42.876Z,102001.42
2018-12-12T12:22:37.577Z,101999.45
2018-12-12T12:27:32.224Z,101998.01
2018-12-12T12:32:26.892Z,101997.48
2018-12-12T12:37:21.729Z,101993.95
2018-12-12T12:42:16.429Z,101983.41
2018-12-12T12:47:11.122Z,101974.34
2018-12-12T12:52:05.772Z,101968.20
2018-12-12T12:57:00.481Z,101971.83
2018-12-12T13:01:55.188Z,101957.20
2018-12-12T13:06:49.859Z,101969.48
2018-12-12T13:11:44.529Z,101960.20
2018-12-12T13:16:39.217Z,101947.73
2018-12-12T13:21:33.868Z,101948.43
2018-12-12T13:26:28.557Z,101936.98
2018-12-12T13:31:23.220Z,101939.00
2018-12-12T13:36:17.962Z,101937.14
2018-12-12T13:41:12.674Z,101934.35
2018-12-12T13:46:07.514Z,101931.69
2018-12-12T13:51:02.365Z,101924.34
2018-12-12T13:55:57.067Z,101921.49
2018-12-12T14:00:51.732Z,101912.69
2018-12-12T14:05:46.452Z,101915.86
2018-12-12T14:10:41.136Z,101909.32
2018-12-12T14:15:35.911Z,101903.63
2018-12-12T14:20:30.594Z,101908.73
2018-12-12T14:25:25.246Z,101909.43
2018-12-12T14:30:19.952Z,101909.91
2018-12-12T14:35:14.623Z,101900.00
2018-12-12T14:40:09.766Z,101901.25
2018-12-12T14:45:05.184Z,101904.20
2018-12-12T14:50:07.092Z,101905.43
2018-12-12T14:55:02.965Z,101902.67
2018-12-12T14:59:58.436Z,101900.84
2018-12-12T15:04:53.113Z,101907.80
2018-12-12T15:09:47.761Z,101911.73
2018-12-12T15:14:42.442Z,101899.41
2018-12-12T15:19:37.085Z,101903.69
2018-12-12T15:24:33.453Z,101899.64
2018-12-12T15:29:28.813Z,101901.70
2018-12-12T15:34:24.167Z,101906.34
2018-12-12T15:39:19.782Z,101904.44
2018-12-12T15:44:14.867Z,101908.12
2018-12-12T15:49:09.847Z,101913.12
2018-12-12T15:54:05.002Z,101912.02
2018-12-12T15:59:00.488Z,101914.38
2018-12-12T16:03:55.415Z,101922.80
2018-12-12T16:08:50.859Z,101916.82
2018-12-12T16:13:46.155Z,101924.73
2018-12-12T16:18:41.164Z,101930.45
2018-12-12T16:23:36.329Z,101926.14
2018-12-12T16:28:32.050Z,101924.92
2018-12-12T16:33:27.825Z,101924.57
2018-12-12T16:38:22.589Z,101934.70
2018-12-12T16:43:17.638Z,101925.14
2018-12-12T16:48:14.516Z,101927.82
2018-12-12T16:53:09.849Z,101927.44
2018-12-12T16:58:05.014Z,101930.55
2018-12-12T17:03:01.213Z,101937.98
2018-12-12T17:07:55.883Z,101938.89
2018-12-12T17:12:50.582Z,101941.52
2018-12-12T17:17:45.276Z,101951.94
2018-12-12T17:22:40.042Z,101953.23
2018-12-12T17:27:34.747Z,101948.45
2018-12-12T17:32:29.474Z,101949.73
2018-12-12T17:37:26.587Z,101951.39
2018-12-12T17:42:22.994Z,101950.81
2018-12-12T17:47:18.226Z,101948.48
2018-12-12T17:52:14.583Z,101941.78
2018-12-12T17:57:09.896Z,101943.84
2018-12-12T18:02:05.561Z,101940.69
2018-12-12T18:07:01.038Z,101940.21
2018-12-12T18:11:56.596Z,101931.47
2018-12-12T18:16:53.260Z,101936.86
2018-12-12T18:21:50.769Z,101928.72
2018-12-12T18:26:46.348Z,101929.81
2018-12-12T18:31:42.433Z,101928.60
2018-12-12T18:36:39.664Z,101931.78
2018-12-12T18:41:34.375Z,101933.62
2018-12-12T18:46:29.065Z,101941.98
2018-12-12T18:51:23.877Z,101938.98
2018-12-12T18:56:18.842Z,101942.48
2018-12-12T19:01:14.269Z,101945.14
2018-12-12T19:06:09.239Z,101948.27
2018-12-12T19:11:06.302Z,101936.10
2018-12-12T19:16:02.229Z,101932.23
2018-12-12T19:21:00.214Z,101931.82
2018-12-12T19:25:54.811Z,101929.24
2018-12-12T19:30:49.867Z,101917.94
2018-12-12T19:35:45.289Z,101915.33
2018-12-12T19:40:40.588Z,101912.21
2018-12-12T19:45:35.750Z,101914.26
2018-12-12T19:50:31.165Z,101904.45
2018-12-12T19:55:26.370Z,101910.31
2018-12-12T20:00:21.766Z,101917.09
2018-12-12T20:05:17.346Z,101918.19
2018-12-12T20:10:12.578Z,101914.97
2018-12-12T20:15:11.228Z,101927.08
2018-12-12T20:20:06.835Z,101917.81
2018-12-12T20:25:02.609Z,101918.16
2018-12-12T20:29:57.892Z,101916.77
2018-12-12T20:34:53.581Z,101910.16
2018-12-12T20:39:48.740Z,101910.94
2018-12-12T20:44:44.612Z,101905.61
2018-12-12T20:49:39.980Z,101920.92
2018-12-12T20:54:35.487Z,101921.78
2018-12-12T20:59:31.017Z,101917.45
2018-12-12T21:04:26.603Z,101910.91
2018-12-12T21:09:21.976Z,101917.00
2018-12-12T21:14:17.040Z,101921.41
2018-12-12T21:19:12.361Z,101918.33
2018-12-12T21:24:07.269Z,101913.90
2018-12-12T21:29:02.737Z,101910.34
2018-12-12T21:33:58.090Z,101907.70
2018-12-12T21:38:53.541Z,101898.51
2018-12-12T21:43:48.826Z,101894.95
2018-12-12T21:48:44.303Z,101891.42
2018-12-12T21:53:39.574Z,101895.84
2018-12-12T21:58:35.103Z,101889.72
2018-12-12T22:03:30.622Z,101885.41
2018-12-12T22:08:25.682Z,101875.73
2018-12-12T22:13:20.469Z,101868.30
2018-12-12T22:18:16.636Z,101856.81
2018-12-12T22:23:11.334Z,101853.70
2018-12-12T22:28:06.022Z,101849.35
2018-12-12T22:33:00.698Z,101850.66
2018-12-12T22:37:55.466Z,101850.66
2018-12-12T22:42:50.180Z,101850.22
2018-12-12T22:47:44.866Z,101837.80
2018-12-12T22:52:39.541Z,101838.58
2018-12-12T22:57:35.409Z,101841.80
2018-12-12T23:02:31.451Z,101833.20
2018-12-12T23:07:26.405Z,101837.27
2018-12-12T23:12:21.986Z,101832.55
2018-12-12T23:17:17.505Z,101834.31
2018-12-12T23:22:12.297Z,101833.85
2018-12-12T23:27:07.793Z,101831.30
2018-12-12T23:32:03.183Z,101827.08
2018-12-12T23:36:59.492Z,101823.73
2018-12-12T23:41:54.748Z,101815.02
2018-12-12T23:46:49.838Z,101814.66
2018-12-12T23:51:44.573Z,101804.23
2018-12-12T23:56:39.744Z,101796.90
